Time;durP1;ratioP1;P1;durP2;ratioP2;P2;SDS_P1;SDS_P2;PMS_P1;PMS_P2;Temp;Humidity;BMP_temperature;BMP_pressure;BME280_temperature;BME280_humidity;BME280_pressure;Samples;Min_cycle;Max_cycle;Signal;HPM_P1;HPM_P2
2021/12/06 00:01:09;;;;;;;38.10;21.63;;;5.20;73.90;;;;;;4968130;28;20030;-81
2021/12/06 00:03:47;;;;;;;34.33;21.27;;;5.20;73.80;;;;;;4986195;28;20054;-81
2021/12/06 00:06:16;;;;;;;30.33;19.70;;;5.20;74.00;;;;;;4959852;28;20409;-81
2021/12/06 00:08:41;;;;;;;30.03;18.20;;;5.20;73.90;;;;;;4965896;28;20026;-81
2021/12/06 00:11:09;;;;;;;28.17;18.43;;;5.20;74.00;;;;;;4970172;28;20030;-81
2021/12/06 00:13:40;;;;;;;28.33;18.80;;;5.20;73.90;;;;;;4968507;28;20137;-81
2021/12/06 00:16:12;;;;;;;28.47;17.90;;;5.20;73.80;;;;;;4969590;28;20115;-81
2021/12/06 00:18:38;;;;;;;29.60;17.80;;;5.20;73.70;;;;;;4986158;28;20449;-81
2021/12/06 00:21:05;;;;;;;28.07;17.47;;;5.10;73.70;;;;;;4981069;28;20117;-81
2021/12/06 00:23:31;;;;;;;26.03;17.90;;;5.10;73.90;;;;;;4985893;28;20458;-81
2021/12/06 00:25:57;;;;;;;29.07;16.07;;;5.10;73.70;;;;;;4980519;28;20033;-81
2021/12/06 00:28:23;;;;;;;26.73;17.13;;;5.20;73.90;;;;;;4963188;28;20030;-81
2021/12/06 00:30:50;;;;;;;30.40;17.63;;;5.10;73.80;;;;;;4983121;28;20027;-81
2021/12/06 00:33:16;;;;;;;23.67;16.80;;;5.20;73.90;;;;;;4965687;28;20048;-81
2021/12/06 00:35:43;;;;;;;25.03;15.87;;;5.20;73.90;;;;;;4971839;28;20500;-81
2021/12/06 00:38:08;;;;;;;25.73;16.80;;;5.20;73.90;;;;;;4990653;28;20057;-81
2021/12/06 00:40:41;;;;;;;27.47;17.00;;;5.20;73.80;;;;;;4962301;28;20046;-81
2021/12/06 00:43:07;;;;;;;23.00;16.65;;;5.10;73.70;;;;;;4985841;28;20386;-82
2021/12/06 00:45:33;;;;;;;25.23;17.27;;;5.10;73.80;;;;;;4971615;28;20122;-81
2021/12/06 00:48:00;;;;;;;26.20;16.57;;;5.10;73.90;;;;;;4967755;28;20134;-81
2021/12/06 00:50:29;;;;;;;24.10;16.50;;;5.20;74.00;;;;;;4974777;28;20041;-81
2021/12/06 00:52:55;;;;;;;27.60;16.87;;;5.20;73.90;;;;;;4974402;28;20501;-81
2021/12/06 00:55:22;;;;;;;26.20;17.37;;;5.10;74.00;;;;;;4975579;28;20050;-81
2021/12/06 00:57:52;;;;;;;28.30;17.20;;;5.10;73.90;;;;;;4963296;28;20042;-81
2021/12/06 01:00:44;;;;;;;24.13;16.20;;;5.20;74.10;;;;;;4967285;28;20027;-81
2021/12/06 01:03:14;;;;;;;31.40;17.63;;;5.20;74.10;;;;;;4973415;28;20031;-81
2021/12/06 01:05:41;;;;;;;25.30;17.13;;;5.10;74.10;;;;;;4966743;28;20080;-81
2021/12/06 01:08:07;;;;;;;25.33;15.97;;;5.10;74.10;;;;;;4978735;28;20097;-82
2021/12/06 01:10:34;;;;;;;25.10;15.97;;;5.10;74.10;;;;;;4972636;28;20026;-81
2021/12/06 01:13:01;;;;;;;22.83;14.33;;;5.10;74.20;;;;;;4979686;28;20023;-81
2021/12/06 01:15:28;;;;;;;21.40;14.57;;;5.10;74.10;;;;;;4985724;28;20344;-81
2021/12/06 01:17:57;;;;;;;20.97;13.80;;;5.10;74.30;;;;;;4970968;28;20104;-81
2021/12/06 01:20:27;;;;;;;20.70;12.80;;;5.20;74.30;;;;;;4972291;28;20077;-81
2021/12/06 01:22:58;;;;;;;21.90;14.17;;;5.20;74.10;;;;;;4968718;28;20040;-81
2021/12/06 01:25:56;;;;;;;24.10;14.60;;;5.20;74.00;;;;;;4983777;28;20027;-82
2021/12/06 01:41:31;;;;;;;20.47;12.13;;;5.10;74.20;;;;;;4990327;28;20037;-81
2021/12/06 01:44:04;;;;;;;19.83;13.40;;;5.20;74.20;;;;;;4988992;28;20077;-81
2021/12/06 01:46:31;;;;;;;17.73;11.10;;;5.10;74.50;;;;;;4965917;28;20060;-81
2021/12/06 01:48:59;;;;;;;17.53;11.13;;;5.10;74.20;;;;;;4971853;28;20022;-81
2021/12/06 01:51:25;;;;;;;15.63;10.67;;;5.10;74.30;;;;;;4966723;28;20062;-81
2021/12/06 01:53:51;;;;;;;20.53;11.53;;;5.20;74.20;;;;;;4959763;28;20440;-79
2021/12/06 01:56:19;;;;;;;17.67;12.10;;;5.10;74.20;;;;;;4975069;28;20477;-80
2021/12/06 01:58:45;;;;;;;15.03;10.63;;;5.10;74.40;;;;;;4994751;28;20026;-81
2021/12/06 02:01:11;;;;;;;15.00;10.97;;;5.10;74.40;;;;;;4991777;28;20121;-81
2021/12/06 02:03:38;;;;;;;17.73;11.80;;;5.10;74.40;;;;;;4981238;28;20037;-81
2021/12/06 02:06:04;;;;;;;20.10;12.07;;;5.10;74.40;;;;;;4974030;28;20054;-81
2021/12/06 02:08:30;;;;;;;25.47;16.07;;;5.10;74.30;;;;;;4987832;28;20034;-81
2021/12/06 02:11:01;;;;;;;26.63;16.27;;;5.10;74.30;;;;;;4970031;28;20026;-81
2021/12/06 02:13:37;;;;;;;24.47;16.23;;;5.10;74.20;;;;;;4970977;28;20030;-81
2021/12/06 02:16:04;;;;;;;25.93;16.63;;;5.10;74.30;;;;;;4987035;28;20030;-82
2021/12/06 02:21:20;;;;;;;20.45;13.10;;;5.10;74.40;;;;;;4982304;28;20130;-82
2021/12/06 02:23:48;;;;;;;18.43;12.33;;;5.10;74.50;;;;;;4982102;28;20562;-82
2021/12/06 02:26:14;;;;;;;17.53;10.20;;;5.10;74.30;;;;;;4966095;28;20430;-82
2021/12/06 02:28:41;;;;;;;19.50;11.80;;;5.00;74.40;;;;;;4989701;28;20034;-81
2021/12/06 02:31:07;;;;;;;15.43;10.33;;;5.10;74.60;;;;;;4994541;28;20045;-81
2021/12/06 02:33:33;;;;;;;14.47;9.87;;;5.10;74.60;;;;;;4969521;28;20026;-81
2021/12/06 02:35:59;;;;;;;17.83;11.20;;;5.10;74.40;;;;;;4967125;28;20108;-81
2021/12/06 02:38:25;;;;;;;16.03;10.37;;;5.10;74.40;;;;;;4964888;28;20034;-81
2021/12/06 02:40:51;;;;;;;11.67;8.50;;;5.10;74.30;;;;;;4969443;28;20018;-81
2021/12/06 02:43:17;;;;;;;12.17;7.43;;;5.10;74.30;;;;;;4969973;28;20394;-81
2021/12/06 02:45:44;;;;;;;10.03;6.47;;;5.10;74.20;;;;;;4962170;28;20030;-81
2021/12/06 02:48:12;;;;;;;11.67;6.20;;;5.10;74.20;;;;;;4981498;28;20355;-81
2021/12/06 02:50:48;;;;;;;8.47;5.77;;;5.10;74.10;;;;;;4994721;28;20017;-81
2021/12/06 02:53:15;;;;;;;7.73;5.07;;;5.10;74.40;;;;;;4973493;28;20087;-81
2021/12/06 02:55:43;;;;;;;10.30;5.10;;;5.10;74.30;;;;;;4957968;28;20541;-81
2021/12/06 02:58:32;;;;;;;7.53;4.80;;;5.10;74.20;;;;;;4967863;28;20532;-82
2021/12/06 03:01:00;;;;;;;6.87;4.37;;;5.10;74.20;;;;;;4980701;28;20019;-81
2021/12/06 03:03:25;;;;;;;7.57;4.93;;;5.10;74.10;;;;;;4966045;28;20073;-81
2021/12/06 03:05:52;;;;;;;6.90;4.50;;;5.10;74.00;;;;;;4971402;28;20031;-82
2021/12/06 03:09:01;;;;;;;6.60;4.67;;;5.10;74.20;;;;;;4966259;28;20057;-81
2021/12/06 03:11:35;;;;;;;7.97;4.80;;;5.10;74.20;;;;;;4926507;29;20032;-81
2021/12/06 03:14:02;;;;;;;8.20;4.63;;;5.10;74.00;;;;;;4980927;28;20061;-81
2021/12/06 03:16:28;;;;;;;10.23;5.27;;;5.10;74.10;;;;;;4985574;28;20118;-81
2021/12/06 03:18:55;;;;;;;7.03;4.70;;;5.10;74.30;;;;;;4978470;28;20091;-81
2021/12/06 03:21:22;;;;;;;7.67;4.67;;;5.10;74.20;;;;;;4992594;28;20081;-81
2021/12/06 03:23:48;;;;;;;7.50;4.40;;;5.10;74.20;;;;;;4990458;28;21030;-81
2021/12/06 03:26:14;;;;;;;6.83;4.20;;;5.10;74.30;;;;;;4976216;28;20030;-81
2021/12/06 03:28:43;;;;;;;8.17;4.97;;;5.10;74.00;;;;;;4979466;28;20454;-81
2021/12/06 03:31:10;;;;;;;8.20;5.77;;;5.10;73.80;;;;;;4978516;28;20109;-81
2021/12/06 03:33:39;;;;;;;9.27;6.20;;;5.10;73.80;;;;;;4978853;28;20505;-81
2021/12/06 03:36:06;;;;;;;8.83;6.10;;;5.10;73.80;;;;;;4968484;28;20378;-81
2021/12/06 03:38:33;;;;;;;10.60;6.63;;;5.00;73.90;;;;;;4969812;28;20048;-81
2021/12/06 03:40:59;;;;;;;11.50;7.67;;;5.00;74.10;;;;;;4967513;28;20033;-81
2021/12/06 03:43:25;;;;;;;9.87;6.47;;;5.00;74.10;;;;;;4987837;28;20405;-81
2021/12/06 03:45:51;;;;;;;9.83;6.00;;;5.00;74.00;;;;;;4960478;28;20037;-81
2021/12/06 03:48:17;;;;;;;8.07;5.07;;;5.00;73.90;;;;;;4958529;28;20058;-81
2021/12/06 03:50:42;;;;;;;10.77;5.80;;;5.00;74.10;;;;;;4984453;28;20057;-81
2021/12/06 03:53:08;;;;;;;7.83;5.27;;;5.00;73.90;;;;;;4987185;28;20031;-81
2021/12/06 03:55:34;;;;;;;10.90;6.40;;;5.00;73.60;;;;;;4964727;28;20043;-81
2021/12/06 03:58:00;;;;;;;9.37;6.60;;;5.00;73.70;;;;;;4964909;28;20117;-81
2021/12/06 04:00:26;;;;;;;10.63;7.07;;;5.00;73.70;;;;;;4967695;28;20022;-81
2021/12/06 04:02:52;;;;;;;11.60;6.40;;;5.00;73.70;;;;;;4984585;28;20061;-81
2021/12/06 04:05:17;;;;;;;9.03;5.53;;;5.00;73.90;;;;;;4983280;28;20026;-81
2021/12/06 04:07:43;;;;;;;7.07;4.40;;;4.90;73.90;;;;;;4978912;28;20449;-81
2021/12/06 04:10:10;;;;;;;9.40;5.23;;;4.90;74.00;;;;;;4971427;28;20138;-81
2021/12/06 04:12:36;;;;;;;6.97;3.47;;;4.90;73.80;;;;;;4959352;28;20118;-81
2021/12/06 04:15:07;;;;;;;6.07;3.80;;;5.00;73.80;;;;;;4987766;28;20025;-81
2021/12/06 04:17:33;;;;;;;6.43;3.60;;;5.00;73.80;;;;;;4987776;28;20019;-81
2021/12/06 04:19:58;;;;;;;4.70;3.63;;;5.00;73.70;;;;;;4969235;28;20019;-81
2021/12/06 04:22:24;;;;;;;8.07;3.87;;;5.00;73.60;;;;;;4965610;28;20435;-81
2021/12/06 04:24:50;;;;;;;5.83;3.37;;;5.00;73.60;;;;;;4984102;28;20110;-81
2021/12/06 04:27:18;;;;;;;7.70;3.53;;;5.00;73.60;;;;;;4979337;28;20601;-81
2021/12/06 04:29:50;;;;;;;6.80;4.53;;;5.00;73.60;;;;;;4959460;28;20038;-81
2021/12/06 04:32:17;;;;;;;10.02;6.22;;;5.00;73.60;;;;;;4989716;28;20033;-81
2021/12/06 04:34:43;;;;;;;9.60;5.00;;;5.00;73.60;;;;;;4955072;28;20434;-81
2021/12/06 04:37:10;;;;;;;6.27;3.27;;;5.00;73.60;;;;;;4985359;28;20110;-81
2021/12/06 04:39:36;;;;;;;4.93;2.60;;;5.00;73.50;;;;;;4980222;28;20027;-81
2021/12/06 04:42:03;;;;;;;8.53;3.10;;;5.00;73.60;;;;;;4972429;28;20489;-81
2021/12/06 04:44:29;;;;;;;5.10;2.90;;;5.00;73.40;;;;;;4983581;28;20057;-81
2021/12/06 04:46:55;;;;;;;5.33;3.77;;;4.90;73.30;;;;;;4974566;28;20042;-81
2021/12/06 04:49:21;;;;;;;6.07;4.23;;;4.90;73.50;;;;;;4964112;28;20046;-81
2021/12/06 04:51:48;;;;;;;7.10;4.90;;;4.90;73.60;;;;;;4960067;28;20100;-81
2021/12/06 04:54:17;;;;;;;5.67;4.40;;;4.90;73.70;;;;;;4979350;28;20069;-81
2021/12/06 04:56:49;;;;;;;9.40;4.70;;;4.90;73.70;;;;;;4956817;28;20470;-81
2021/12/06 04:59:39;;;;;;;7.78;4.35;;;5.00;73.70;;;;;;4978153;28;20482;-81
2021/12/06 05:02:18;;;;;;;6.30;3.73;;;4.90;73.50;;;;;;4985651;28;20049;-81
2021/12/06 05:04:47;;;;;;;5.83;4.27;;;4.90;73.60;;;;;;4986852;28;20084;-81
2021/12/06 05:07:30;;;;;;;10.67;3.63;;;4.90;73.70;;;;;;4957843;28;20030;-81
2021/12/06 05:09:56;;;;;;;;;;;4.80;73.90;;;;;;4990537;28;20033;-81
2021/12/06 05:12:25;;;;;;;7.27;4.23;;;4.90;74.10;;;;;;4988164;28;19920;-81
2021/12/06 05:14:54;;;;;;;6.53;4.80;;;4.90;73.70;;;;;;4970366;28;20034;-81
2021/12/06 05:17:20;;;;;;;5.80;4.53;;;4.90;74.00;;;;;;4984576;28;20022;-81
2021/12/06 05:19:46;;;;;;;6.57;4.60;;;5.00;74.10;;;;;;4965984;28;20542;-81
2021/12/06 05:22:12;;;;;;;7.00;5.30;;;5.00;74.00;;;;;;4972849;28;20022;-81
2021/12/06 05:24:38;;;;;;;7.93;5.30;;;5.00;73.80;;;;;;4969133;28;20023;-81
2021/12/06 05:27:05;;;;;;;9.37;5.73;;;5.00;73.70;;;;;;4990117;28;20030;-81
2021/12/06 05:29:32;;;;;;;7.73;5.10;;;5.00;73.60;;;;;;4967101;28;20038;-81
2021/12/06 05:32:00;;;;;;;9.27;5.13;;;5.00;73.80;;;;;;4977865;28;20553;-81
2021/12/06 05:34:38;;;;;;;8.83;5.23;;;4.90;73.60;;;;;;4983300;28;20092;-81
2021/12/06 05:37:08;;;;;;;7.70;4.57;;;4.90;73.90;;;;;;4990823;28;20026;-81
2021/12/06 05:39:34;;;;;;;9.37;5.23;;;5.00;73.70;;;;;;4972302;28;20023;-81
2021/12/06 05:42:03;;;;;;;7.70;5.50;;;5.00;73.60;;;;;;4983981;28;20022;-81
2021/12/06 05:44:30;;;;;;;8.67;5.30;;;5.00;73.60;;;;;;4973679;28;20049;-82
2021/12/06 05:46:57;;;;;;;7.33;5.50;;;5.00;73.40;;;;;;4976270;28;20088;-81
2021/12/06 05:49:23;;;;;;;11.40;6.73;;;5.00;73.60;;;;;;4970146;28;20034;-81
2021/12/06 05:51:49;;;;;;;12.33;6.63;;;4.90;73.40;;;;;;4986488;28;20027;-81
2021/12/06 05:54:16;;;;;;;12.03;6.67;;;4.90;73.60;;;;;;4974924;28;20101;-81
2021/12/06 05:56:42;;;;;;;13.80;8.43;;;4.90;73.60;;;;;;4968348;28;20021;-81
2021/12/06 05:59:08;;;;;;;17.67;8.33;;;4.90;73.70;;;;;;4989302;28;20485;-82
2021/12/06 06:01:33;;;;;;;13.90;8.77;;;4.90;73.80;;;;;;4983260;28;20023;-82
2021/12/06 06:04:01;;;;;;;16.03;9.27;;;4.90;73.90;;;;;;4968070;28;20031;-81
2021/12/06 06:06:34;;;;;;;17.83;9.63;;;4.90;73.70;;;;;;4983969;28;20088;-81
2021/12/06 06:09:02;;;;;;;33.17;9.97;;;4.90;73.90;;;;;;4971474;28;20046;-81
2021/12/06 06:11:28;;;;;;;18.97;9.73;;;4.80;74.00;;;;;;4970992;28;20032;-81
2021/12/06 06:13:54;;;;;;;14.97;8.67;;;4.90;74.00;;;;;;4965883;28;20116;-81
2021/12/06 06:16:22;;;;;;;14.63;9.40;;;4.90;73.90;;;;;;4968800;28;20471;-81
2021/12/06 06:18:50;;;;;;;18.20;10.13;;;5.00;74.00;;;;;;4987404;28;20023;-81
2021/12/06 06:21:17;;;;;;;13.93;8.70;;;5.00;73.90;;;;;;4963458;28;20054;-81
2021/12/06 06:23:43;;;;;;;15.13;9.07;;;4.90;74.00;;;;;;4987635;28;20041;-81
2021/12/06 06:26:09;;;;;;;14.97;9.93;;;4.90;74.40;;;;;;4972726;28;20101;-82
2021/12/06 06:28:35;;;;;;;9.27;6.30;;;5.00;74.60;;;;;;4995769;28;20042;-82
2021/12/06 06:31:00;;;;;;;11.50;7.33;;;5.10;74.40;;;;;;4993775;28;20038;-81
2021/12/06 06:33:26;;;;;;;13.03;7.43;;;5.20;74.10;;;;;;4958916;28;20026;-82
2021/12/06 06:35:53;;;;;;;8.97;6.30;;;5.30;74.40;;;;;;4969305;28;20501;-81
2021/12/06 06:38:20;;;;;;;10.77;8.00;;;5.40;74.10;;;;;;4994903;28;20098;-81
2021/12/06 06:40:46;;;;;;;11.17;7.90;;;5.40;73.60;;;;;;4983456;28;20085;-82
2021/12/06 06:43:11;;;;;;;11.30;7.63;;;5.40;73.20;;;;;;4991041;28;20496;-81
2021/12/06 06:45:38;;;;;;;12.67;8.30;;;5.30;73.00;;;;;;4989724;28;20123;-81
2021/12/06 06:48:04;;;;;;;12.90;7.80;;;5.20;73.00;;;;;;4960466;28;20471;-81
2021/12/06 06:50:30;;;;;;;13.27;10.10;;;5.20;73.00;;;;;;4982104;28;20048;-82
2021/12/06 06:52:56;;;;;;;14.33;9.07;;;5.10;73.00;;;;;;4970888;28;20117;-82
2021/12/06 06:55:23;;;;;;;12.60;9.50;;;5.10;73.10;;;;;;4958787;28;20133;-81
2021/12/06 06:57:51;;;;;;;15.13;10.27;;;5.00;73.40;;;;;;4978391;28;20034;-81
2021/12/06 07:00:26;;;;;;;20.93;10.83;;;5.10;73.40;;;;;;4973698;28;20026;-81
2021/12/06 07:02:53;;;;;;;24.00;12.97;;;5.00;73.30;;;;;;4986907;28;20026;-82
2021/12/06 07:05:19;;;;;;;24.47;12.93;;;5.00;73.30;;;;;;4985478;28;20385;-82
2021/12/06 07:07:45;;;;;;;19.87;10.97;;;5.00;73.40;;;;;;4972126;28;20117;-81
2021/12/06 07:10:12;;;;;;;21.87;12.10;;;5.00;73.40;;;;;;4973132;28;20125;-81
2021/12/06 07:12:47;;;;;;;21.50;11.57;;;5.00;73.50;;;;;;4994602;28;20092;-82
2021/12/06 07:15:16;;;;;;;20.63;11.60;;;5.00;73.50;;;;;;4991369;28;20022;-82
2021/12/06 07:17:44;;;;;;;29.43;15.80;;;4.90;73.60;;;;;;4973167;28;20035;-81
2021/12/06 07:20:11;;;;;;;36.20;20.63;;;5.00;73.70;;;;;;4981520;28;20050;-81
2021/12/06 07:22:37;;;;;;;36.90;23.20;;;5.00;73.80;;;;;;4973826;28;20487;-82
2021/12/06 07:25:06;;;;;;;23.63;15.30;;;5.00;73.70;;;;;;4975064;28;20031;-81
2021/12/06 07:27:32;;;;;;;16.87;12.37;;;5.00;74.00;;;;;;4968654;28;20053;-81
2021/12/06 07:29:59;;;;;;;19.50;12.17;;;5.00;73.90;;;;;;4981035;28;20034;-81
2021/12/06 07:32:25;;;;;;;16.80;12.30;;;5.10;73.90;;;;;;4985224;28;20153;-81
2021/12/06 07:34:51;;;;;;;16.83;12.10;;;5.10;73.60;;;;;;4966039;28;20125;-81
2021/12/06 07:37:17;;;;;;;18.83;14.20;;;5.10;73.60;;;;;;4979061;28;20031;-81
2021/12/06 07:39:44;;;;;;;16.10;12.97;;;5.20;73.50;;;;;;4969126;28;20026;-81
2021/12/06 07:42:12;;;;;;;16.93;11.87;;;5.20;73.30;;;;;;4973193;28;20026;-81
2021/12/06 07:44:40;;;;;;;14.00;10.93;;;5.20;73.10;;;;;;4964860;28;20471;-82
2021/12/06 07:47:07;;;;;;;17.33;11.87;;;5.20;73.00;;;;;;4971892;28;20086;-82
2021/12/06 07:49:32;;;;;;;16.07;11.30;;;5.20;72.90;;;;;;4965577;28;20033;-81
2021/12/06 07:51:58;;;;;;;16.07;9.63;;;5.20;73.00;;;;;;4976385;28;20564;-81
2021/12/06 07:54:24;;;;;;;16.47;9.77;;;5.20;73.00;;;;;;4966360;28;20050;-81
2021/12/06 07:56:50;;;;;;;15.10;10.20;;;5.20;72.80;;;;;;4979690;28;20479;-81
2021/12/06 07:59:15;;;;;;;13.87;9.37;;;5.20;72.90;;;;;;4973686;28;20058;-81
2021/12/06 08:01:42;;;;;;;11.67;8.53;;;5.20;72.80;;;;;;4961075;28;20031;-81
2021/12/06 08:04:08;;;;;;;17.50;11.10;;;5.20;72.70;;;;;;4962864;28;20058;-81
2021/12/06 08:06:34;;;;;;;11.67;9.07;;;5.20;72.80;;;;;;4958533;28;20061;-81
2021/12/06 08:09:00;;;;;;;12.63;9.00;;;5.20;72.80;;;;;;4964360;28;20501;-81
2021/12/06 08:11:26;;;;;;;31.63;18.67;;;5.20;72.80;;;;;;4961855;28;20034;-81
2021/12/06 08:13:56;;;;;;;17.90;11.00;;;5.20;72.70;;;;;;4967249;28;20030;-81
2021/12/06 08:16:34;;;;;;;17.43;12.50;;;5.30;72.70;;;;;;4960875;28;20022;-81
2021/12/06 08:19:00;;;;;;;14.87;10.27;;;5.30;72.60;;;;;;4981760;28;20027;-81
2021/12/06 08:21:27;;;;;;;12.17;9.73;;;5.30;72.60;;;;;;4968799;28;20050;-81
2021/12/06 08:23:55;;;;;;;13.57;8.97;;;5.30;72.60;;;;;;4980533;28;20045;-81
2021/12/06 08:26:23;;;;;;;13.03;9.13;;;5.30;72.60;;;;;;4983709;28;20482;-81
2021/12/06 08:28:51;;;;;;;11.93;9.37;;;5.40;72.30;;;;;;4966902;28;20034;-81
2021/12/06 08:31:22;;;;;;;14.53;9.10;;;5.40;72.30;;;;;;4962284;28;20041;-81
2021/12/06 08:33:53;;;;;;;22.60;11.33;;;5.40;72.10;;;;;;4975650;28;20035;-81
2021/12/06 08:36:20;;;;;;;32.43;16.10;;;5.40;72.10;;;;;;4964952;28;20042;-81
2021/12/06 08:38:47;;;;;;;24.00;13.43;;;5.40;72.20;;;;;;4983961;28;20031;-81
2021/12/06 08:41:16;;;;;;;12.93;9.37;;;5.40;72.20;;;;;;4987442;28;20027;-81
2021/12/06 08:43:43;;;;;;;13.67;9.73;;;5.40;72.10;;;;;;4970130;28;20026;-81
2021/12/06 08:46:20;;;;;;;13.63;8.90;;;5.40;72.20;;;;;;4984209;28;20526;-81
2021/12/06 08:48:48;;;;;;;10.83;7.77;;;5.40;72.30;;;;;;4975514;28;20504;-81
2021/12/06 08:51:27;;;;;;;9.70;7.57;;;5.50;72.30;;;;;;4966092;28;20065;-81
2021/12/06 08:53:55;;;;;;;11.03;7.03;;;5.50;72.00;;;;;;4975222;28;20038;-81
2021/12/06 08:56:21;;;;;;;12.53;6.77;;;5.60;71.90;;;;;;4961026;28;20058;-81
2021/12/06 08:58:47;;;;;;;9.63;7.03;;;5.60;72.30;;;;;;4976964;28;20023;-81
2021/12/06 09:01:13;;;;;;;9.73;6.97;;;5.60;71.70;;;;;;4974631;28;20029;-81
2021/12/06 09:03:39;;;;;;;8.57;6.63;;;5.60;71.80;;;;;;4960970;28;20069;-81
2021/12/06 09:06:09;;;;;;;9.47;6.47;;;5.70;71.70;;;;;;4974301;28;20026;-81
2021/12/06 09:08:35;;;;;;;10.37;7.13;;;5.70;71.70;;;;;;4978719;28;20042;-81
2021/12/06 09:11:01;;;;;;;12.10;8.07;;;5.60;71.60;;;;;;4992302;28;20404;-81
2021/12/06 09:13:29;;;;;;;13.40;9.03;;;5.70;71.50;;;;;;4957337;28;20023;-81
2021/12/06 09:15:56;;;;;;;18.30;10.37;;;5.70;71.50;;;;;;4964187;28;20027;-81
2021/12/06 09:18:23;;;;;;;10.33;7.30;;;5.70;71.40;;;;;;4982986;28;20482;-81
2021/12/06 09:20:50;;;;;;;9.07;6.77;;;5.70;71.40;;;;;;4988990;28;20033;-81
2021/12/06 09:23:17;;;;;;;10.30;7.23;;;5.70;71.60;;;;;;4962427;28;20030;-82
2021/12/06 09:25:45;;;;;;;10.60;6.73;;;5.70;71.30;;;;;;4960603;28;20066;-81
2021/12/06 09:28:13;;;;;;;10.90;7.63;;;5.80;71.40;;;;;;4966674;28;20030;-81
2021/12/06 09:30:39;;;;;;;10.73;8.00;;;5.80;71.20;;;;;;4981007;28;20038;-81
2021/12/06 09:33:08;;;;;;;9.83;6.80;;;5.80;71.30;;;;;;4977298;28;20467;-81
2021/12/06 09:35:36;;;;;;;10.23;7.43;;;5.80;71.00;;;;;;4981069;28;20023;-81
2021/12/06 09:38:05;;;;;;;12.23;7.13;;;5.80;70.70;;;;;;4978510;28;20027;-82
2021/12/06 09:40:34;;;;;;;10.47;7.70;;;5.70;70.60;;;;;;4961742;28;20030;-81
2021/12/06 09:43:02;;;;;;;9.43;7.53;;;5.70;71.00;;;;;;4963555;28;20086;-81
2021/12/06 09:45:31;;;;;;;10.23;7.63;;;5.60;70.60;;;;;;4977883;28;20037;-81
2021/12/06 09:47:59;;;;;;;9.77;6.70;;;5.60;71.00;;;;;;4956695;28;20035;-81
2021/12/06 09:50:29;;;;;;;12.33;6.20;;;5.60;71.00;;;;;;4965276;28;20817;-81
2021/12/06 09:52:57;;;;;;;11.30;6.17;;;5.60;71.00;;;;;;4975155;28;20097;-81
2021/12/06 09:55:24;;;;;;;8.53;5.53;;;5.60;71.20;;;;;;4966142;28;20042;-81
2021/12/06 09:57:50;;;;;;;6.17;4.67;;;5.60;70.90;;;;;;4977665;28;20019;-81
2021/12/06 10:00:20;;;;;;;6.27;5.10;;;5.60;70.90;;;;;;4962146;28;20489;-81
2021/12/06 10:02:46;;;;;;;9.47;6.07;;;5.60;71.20;;;;;;4971353;28;20023;-81
2021/12/06 10:05:12;;;;;;;9.00;6.13;;;5.70;71.00;;;;;;4974959;28;20027;-81
2021/12/06 10:07:38;;;;;;;9.57;6.27;;;5.70;71.00;;;;;;4962870;28;20395;-82
2021/12/06 10:10:07;;;;;;;13.03;7.80;;;5.60;70.50;;;;;;4964651;28;20118;-82
2021/12/06 10:12:33;;;;;;;12.77;6.23;;;5.60;70.60;;;;;;4965270;28;20073;-82
2021/12/06 10:15:02;;;;;;;10.73;7.63;;;5.70;70.50;;;;;;4979229;28;20437;-82
2021/12/06 10:17:29;;;;;;;10.03;6.67;;;5.70;70.90;;;;;;4963245;28;20430;-81
2021/12/06 10:19:55;;;;;;;10.33;7.77;;;5.80;70.70;;;;;;4964733;28;20030;-82
2021/12/06 10:22:22;;;;;;;11.50;7.17;;;5.80;70.30;;;;;;4978279;28;20107;-82
2021/12/06 10:24:54;;;;;;;11.97;7.43;;;5.80;70.50;;;;;;4966987;28;20519;-82
2021/12/06 10:27:20;;;;;;;;;;;5.80;70.60;;;;;;4963940;28;20034;-82
2021/12/06 10:30:02;;;;;;;12.43;6.07;;;5.70;70.60;;;;;;4980548;28;20381;-82
2021/12/06 10:32:40;;;;;;;11.87;6.93;;;5.80;70.70;;;;;;4965926;28;20033;-82
2021/12/06 10:35:12;;;;;;;15.77;9.60;;;5.70;70.30;;;;;;4982879;28;20019;-81
2021/12/06 10:37:54;;;;;;;26.30;13.25;;;5.80;70.40;;;;;;4963899;28;20082;-82
2021/12/06 10:40:22;;;;;;;30.57;16.33;;;5.70;70.20;;;;;;4986068;28;20157;-82
2021/12/06 10:42:50;;;;;;;11.67;8.23;;;5.80;70.20;;;;;;4970822;28;20092;-82
2021/12/06 10:45:26;;;;;;;15.40;8.50;;;5.90;70.00;;;;;;4964029;28;20490;-81
2021/12/06 10:48:12;;;;;;;12.60;8.80;;;6.00;70.20;;;;;;4981226;28;20031;-81
2021/12/06 10:50:52;;;;;;;17.27;13.97;;;6.10;69.30;;;;;;4968386;28;20478;-81
2021/12/06 10:53:43;;;;;;;9.77;6.27;;;6.00;68.90;;;;;;4977874;28;20038;-81
2021/12/06 10:56:18;;;;;;;16.27;9.30;;;5.90;69.00;;;;;;4964572;28;20046;-81
2021/12/06 10:58:46;;;;;;;18.20;10.43;;;5.90;69.60;;;;;;4962162;28;20031;-81
2021/12/06 11:01:14;;;;;;;9.10;6.57;;;5.90;69.80;;;;;;4978772;28;20026;-81
2021/12/06 11:03:45;;;;;;;9.27;3.87;;;6.00;69.60;;;;;;4964516;28;20038;-81
2021/12/06 11:06:21;;;;;;;13.50;7.40;;;6.00;69.10;;;;;;4984039;28;20034;-81
2021/12/06 11:08:49;;;;;;;13.67;7.20;;;6.00;69.10;;;;;;4979053;28;20485;-81
2021/12/06 11:11:23;;;;;;;10.67;4.47;;;6.10;69.00;;;;;;4979617;28;20038;-81
2021/12/06 11:13:53;;;;;;;12.97;6.90;;;6.10;68.90;;;;;;4962863;28;20074;-81
2021/12/06 11:16:31;;;;;;;9.30;4.50;;;6.10;69.00;;;;;;4963916;28;20488;-81
2021/12/06 11:19:06;;;;;;;12.67;6.20;;;6.10;68.70;;;;;;4959124;28;20039;-81
2021/12/06 11:21:46;;;;;;;15.37;7.97;;;6.10;68.80;;;;;;4970963;28;20038;-81
2021/12/06 11:24:17;;;;;;;21.03;8.20;;;6.00;68.50;;;;;;4974254;28;20041;-81
2021/12/06 11:26:45;;;;;;;10.60;4.80;;;5.90;68.80;;;;;;4958561;28;20034;-81
2021/12/06 11:29:24;;;;;;;25.03;9.30;;;5.90;68.90;;;;;;4991284;28;20035;-81
2021/12/06 11:31:54;;;;;;;12.60;6.83;;;6.00;68.90;;;;;;4961622;28;20446;-81
2021/12/06 11:34:20;;;;;;;7.77;4.03;;;6.10;68.60;;;;;;4986861;28;20038;-80
2021/12/06 11:36:46;;;;;;;12.83;5.40;;;6.00;68.10;;;;;;4981751;28;20081;-80
2021/12/06 11:39:19;;;;;;;23.07;8.70;;;6.00;68.50;;;;;;4961282;28;20069;-81
2021/12/06 11:41:48;;;;;;;;;;;6.00;68.40;;;;;;4965905;28;20018;-81
2021/12/06 11:44:17;;;;;;;10.33;4.53;;;6.10;68.70;;;;;;4958107;28;19976;-81
2021/12/06 11:46:44;;;;;;;22.77;8.00;;;6.10;68.30;;;;;;4965149;28;20037;-81
2021/12/06 11:49:29;;;;;;;12.10;5.63;;;6.10;68.40;;;;;;4959675;28;20079;-81
2021/12/06 11:51:54;;;;;;;14.30;5.00;;;6.10;68.30;;;;;;4982734;28;20035;-81
2021/12/06 11:54:21;;;;;;;34.60;11.83;;;6.20;68.30;;;;;;4965251;28;20050;-81
2021/12/06 11:56:48;;;;;;;8.57;3.73;;;6.30;68.30;;;;;;4981489;28;20019;-81
2021/12/06 11:59:16;;;;;;;6.53;3.40;;;6.30;67.80;;;;;;4978670;28;20486;-81
2021/12/06 12:01:43;;;;;;;24.67;8.33;;;6.20;67.90;;;;;;4962285;28;20022;-81
2021/12/06 12:04:13;;;;;;;6.87;3.80;;;6.40;67.80;;;;;;4986119;28;20110;-80
2021/12/06 12:07:00;;;;;;;6.37;2.63;;;6.40;67.60;;;;;;4963931;28;20124;-81
2021/12/06 12:09:32;;;;;;;24.03;7.63;;;6.40;67.10;;;;;;4982136;28;20499;-81
2021/12/06 12:12:15;;;;;;;39.03;10.40;;;6.30;67.00;;;;;;4964205;28;20377;-81
2021/12/06 12:14:44;;;;;;;16.10;5.20;;;6.10;67.10;;;;;;4978993;28;20030;-81
2021/12/06 12:17:12;;;;;;;76.17;19.53;;;6.00;67.50;;;;;;4981775;28;20062;-81
2021/12/06 12:19:39;;;;;;;43.63;10.63;;;5.90;67.30;;;;;;4981691;28;20355;-81
2021/12/06 12:22:08;;;;;;;27.63;7.83;;;5.90;67.70;;;;;;4985400;28;20495;-81
2021/12/06 12:24:37;;;;;;;18.83;6.23;;;5.80;67.40;;;;;;4958526;28;20023;-81
2021/12/06 12:27:16;;;;;;;10.00;3.43;;;5.80;67.60;;;;;;4965081;28;20034;-81
2021/12/06 12:29:43;;;;;;;9.50;2.90;;;5.70;67.90;;;;;;4963488;28;20126;-81
2021/12/06 12:32:10;;;;;;;5.73;2.13;;;5.70;67.60;;;;;;4984434;28;20415;-81
2021/12/06 12:34:37;;;;;;;2.97;1.80;;;5.60;67.90;;;;;;4968537;28;20034;-81
2021/12/06 12:37:06;;;;;;;4.10;2.10;;;5.70;68.20;;;;;;4984064;28;20026;-81
2021/12/06 12:39:32;;;;;;;4.47;2.20;;;5.80;68.20;;;;;;4964483;28;20541;-81
2021/12/06 12:42:01;;;;;;;9.03;2.73;;;5.80;68.20;;;;;;4968242;28;20117;-81
2021/12/06 12:44:49;;;;;;;36.53;10.77;;;5.80;68.00;;;;;;4962951;28;20042;-81
2021/12/06 12:47:23;;;;;;;48.50;14.07;;;5.80;67.90;;;;;;4979295;28;20022;-81
2021/12/06 12:49:52;;;;;;;17.17;4.47;;;5.80;68.00;;;;;;4962358;28;20042;-81
2021/12/06 12:52:39;;;;;;;12.37;4.73;;;5.90;67.50;;;;;;4957557;28;20058;-81
2021/12/06 12:55:26;;;;;;;10.00;3.90;;;5.80;67.30;;;;;;4983494;28;20066;-81
2021/12/06 12:58:06;;;;;;;18.77;6.97;;;5.80;67.50;;;;;;4960196;28;20475;-81
2021/12/06 13:00:31;;;;;;;39.20;11.53;;;5.80;67.60;;;;;;4957004;28;20049;-81
2021/12/06 13:02:57;;;;;;;7.93;3.70;;;5.70;67.10;;;;;;4975789;28;20485;-81
2021/12/06 13:05:29;;;;;;;29.13;9.10;;;5.60;67.10;;;;;;4964221;28;20110;-81
2021/12/06 13:08:02;;;;;;;12.90;4.00;;;5.40;67.00;;;;;;4959302;28;20390;-81
2021/12/06 13:10:33;;;;;;;12.67;3.93;;;5.40;67.40;;;;;;4977055;28;20409;-81
2021/12/06 13:13:06;;;;;;;24.60;7.40;;;5.40;67.20;;;;;;4982245;28;20038;-81